createdAt,value
2022-12-24T00:01:02.202Z,4.05
2022-12-24T00:03:29.275Z,4.13
2022-12-24T00:05:56.126Z,4.22
2022-12-24T00:08:22.917Z,4.18
2022-12-24T00:10:51.792Z,4.22
2022-12-24T00:13:19.544Z,4.10
2022-12-24T00:15:46.425Z,4.41
2022-12-24T00:18:13.138Z,4.44
2022-12-24T00:20:39.803Z,4.60
2022-12-24T00:23:06.924Z,4.53
2022-12-24T00:25:33.750Z,4.71
2022-12-24T00:28:00.382Z,4.72
2022-12-24T00:30:27.271Z,4.75
2022-12-24T00:32:54.779Z,4.79
2022-12-24T00:35:22.104Z,4.62
2022-12-24T00:37:49.934Z,4.56
2022-12-24T00:40:17.566Z,4.32
2022-12-24T00:42:44.649Z,4.13
2022-12-24T00:45:12.442Z,4.19
2022-12-24T00:47:39.355Z,4.08
2022-12-24T00:50:06.795Z,3.95
2022-12-24T00:52:33.444Z,3.84
2022-12-24T00:55:00.398Z,3.83
2022-12-24T00:57:27.075Z,3.74
2022-12-24T00:59:53.678Z,3.81
2022-12-24T01:02:20.455Z,3.77
2022-12-24T01:05:05.911Z,3.88
2022-12-24T01:07:32.621Z,3.84
2022-12-24T01:09:59.235Z,4.00
2022-12-24T01:12:26.109Z,3.99
2022-12-24T01:14:52.937Z,3.96
2022-12-24T01:17:19.579Z,4.00
2022-12-24T01:19:46.199Z,3.93
2022-12-24T01:22:12.881Z,4.03
2022-12-24T01:24:41.660Z,4.02
2022-12-24T01:27:08.881Z,3.83
2022-12-24T01:29:35.617Z,3.83
2022-12-24T01:32:02.320Z,3.86
2022-12-24T01:34:29.058Z,3.70
2022-12-24T01:36:55.767Z,3.57
2022-12-24T01:39:22.435Z,3.54
2022-12-24T01:42:08.005Z,3.68
2022-12-24T01:44:40.144Z,3.64
2022-12-24T01:47:27.830Z,3.53
2022-12-24T01:50:03.461Z,3.53
2022-12-24T01:52:34.025Z,3.43
2022-12-24T01:55:06.706Z,3.44
2022-12-24T01:57:43.494Z,3.44
2022-12-24T02:00:12.691Z,3.23
2022-12-24T02:02:40.835Z,3.22
2022-12-24T02:05:16.966Z,3.39
2022-12-24T02:07:43.730Z,3.41
2022-12-24T02:10:12.949Z,3.37
2022-12-24T02:12:41.701Z,3.33
2022-12-24T02:15:10.981Z,3.04
2022-12-24T02:17:49.912Z,2.87
2022-12-24T02:20:31.123Z,2.64
2022-12-24T02:23:22.178Z,2.72
2022-12-24T02:26:03.015Z,2.87
2022-12-24T02:28:48.409Z,2.99
2022-12-24T02:31:28.834Z,2.90
2022-12-24T02:34:04.703Z,3.04
2022-12-24T02:36:33.531Z,2.87
2022-12-24T02:39:04.388Z,2.94
2022-12-24T02:41:55.389Z,2.99
2022-12-24T02:44:26.014Z,3.07
2022-12-24T02:46:53.702Z,2.96
2022-12-24T02:49:20.451Z,2.98
2022-12-24T02:51:47.136Z,2.86
2022-12-24T02:54:14.802Z,2.81
2022-12-24T02:56:59.809Z,2.62
2022-12-24T02:59:41.905Z,2.56
2022-12-24T03:02:29.679Z,2.56
2022-12-24T03:05:28.798Z,2.53
2022-12-24T03:08:04.162Z,2.29
2022-12-24T03:10:56.910Z,2.38
2022-12-24T03:13:25.417Z,2.55
2022-12-24T03:15:52.360Z,2.68
2022-12-24T03:18:25.932Z,2.62
2022-12-24T03:21:09.456Z,2.44
2022-12-24T03:23:36.192Z,2.13
2022-12-24T03:26:07.557Z,1.90
2022-12-24T03:28:35.057Z,1.74
2022-12-24T03:31:04.884Z,1.62
2022-12-24T03:33:32.277Z,1.62
2022-12-24T03:35:58.989Z,1.69
2022-12-24T03:38:25.870Z,1.66
2022-12-24T03:40:52.531Z,1.43
2022-12-24T03:43:19.179Z,1.41
2022-12-24T03:45:46.023Z,1.47
2022-12-24T03:48:12.741Z,1.33
2022-12-24T03:50:39.589Z,1.42
2022-12-24T03:53:06.308Z,1.77
2022-12-24T03:55:33.002Z,1.82
2022-12-24T03:57:59.627Z,1.67
2022-12-24T04:00:26.366Z,1.44
2022-12-24T04:02:54.013Z,1.36
2022-12-24T04:05:21.375Z,1.31
2022-12-24T04:07:48.268Z,1.27
2022-12-24T04:10:16.829Z,1.19
2022-12-24T04:12:43.544Z,1.07
2022-12-24T04:15:10.678Z,1.07
2022-12-24T04:17:37.296Z,1.01
2022-12-24T04:20:04.307Z,0.94
2022-12-24T04:22:30.981Z,0.85
2022-12-24T04:24:57.639Z,1.04
2022-12-24T04:27:30.082Z,1.31
2022-12-24T04:29:57.560Z,0.94
2022-12-24T04:32:26.809Z,1.02
2022-12-24T04:34:53.717Z,0.97
2022-12-24T04:37:20.464Z,0.82
2022-12-24T04:39:47.173Z,0.92
2022-12-24T04:42:13.854Z,0.94
2022-12-24T04:44:40.707Z,0.94
2022-12-24T04:47:07.355Z,1.00
2022-12-24T04:49:34.025Z,1.25
2022-12-24T04:52:00.758Z,1.03
2022-12-24T04:54:27.465Z,0.81
2022-12-24T04:56:54.185Z,0.94
2022-12-24T04:59:20.907Z,0.98
2022-12-24T05:01:47.640Z,1.12
2022-12-24T05:04:14.430Z,1.28
2022-12-24T05:06:41.600Z,1.19
2022-12-24T05:09:08.223Z,1.25
2022-12-24T05:11:34.877Z,1.30
2022-12-24T05:14:01.594Z,1.37
2022-12-24T05:16:28.246Z,1.31
2022-12-24T05:18:55.131Z,1.35
2022-12-24T05:21:23.907Z,1.45
2022-12-24T05:24:09.166Z,1.43
2022-12-24T05:26:44.740Z,1.53
2022-12-24T05:29:12.444Z,1.59
2022-12-24T05:31:40.405Z,1.50
2022-12-24T05:37:02.618Z,1.44
2022-12-24T05:39:29.279Z,1.38
2022-12-24T05:41:55.898Z,1.46
2022-12-24T05:44:22.572Z,1.54
2022-12-24T05:46:49.281Z,1.44
2022-12-24T05:49:16.003Z,1.52
2022-12-24T05:51:43.130Z,1.46
2022-12-24T05:54:09.800Z,1.48
2022-12-24T05:56:36.519Z,1.36
2022-12-24T05:59:03.488Z,1.25
2022-12-24T06:01:30.151Z,1.41
2022-12-24T06:03:57.963Z,1.47
2022-12-24T06:06:26.985Z,1.40
2022-12-24T06:08:55.406Z,1.34
2022-12-24T06:11:27.060Z,1.24
2022-12-24T06:13:54.344Z,1.26
2022-12-24T06:16:22.145Z,1.27
2022-12-24T06:18:49.135Z,1.33
2022-12-24T06:21:16.248Z,1.16
2022-12-24T06:23:44.565Z,1.15
2022-12-24T06:26:17.048Z,1.33
2022-12-24T06:28:44.677Z,1.41
2022-12-24T06:31:15.292Z,1.39
2022-12-24T06:33:42.064Z,1.43
2022-12-24T06:36:16.867Z,1.25
2022-12-24T06:38:44.669Z,1.54
2022-12-24T06:41:11.292Z,1.69
2022-12-24T06:43:38.079Z,1.76
2022-12-24T06:46:05.326Z,1.85
2022-12-24T06:48:32.059Z,2.03
2022-12-24T06:50:58.731Z,2.15
2022-12-24T06:53:25.423Z,2.35
2022-12-24T06:55:52.030Z,2.53
2022-12-24T06:58:18.777Z,2.67
2022-12-24T07:00:47.807Z,2.37
2022-12-24T07:03:14.590Z,2.32
2022-12-24T07:05:41.299Z,2.61
2022-12-24T07:08:09.043Z,3.05
2022-12-24T07:10:35.785Z,3.39
2022-12-24T07:13:02.467Z,3.42
2022-12-24T07:15:29.122Z,3.18
2022-12-24T07:17:55.849Z,2.60
2022-12-24T07:20:22.486Z,2.39
2022-12-24T07:22:49.171Z,2.11
2022-12-24T07:25:15.907Z,2.14
2022-12-24T07:27:42.788Z,2.07
2022-12-24T07:30:10.805Z,2.08
2022-12-24T07:32:37.518Z,2.10
2022-12-24T07:35:04.632Z,2.39
2022-12-24T07:37:31.523Z,2.66
2022-12-24T07:39:58.176Z,3.02
2022-12-24T07:42:24.911Z,3.18
2022-12-24T07:44:51.810Z,3.60
2022-12-24T07:47:18.468Z,4.11
2022-12-24T07:49:45.090Z,4.43
2022-12-24T07:52:11.715Z,4.43
2022-12-24T07:54:38.384Z,4.44
2022-12-24T07:57:05.022Z,3.94
2022-12-24T07:59:32.058Z,3.79
2022-12-24T08:01:58.811Z,4.27
2022-12-24T08:04:25.556Z,3.63
2022-12-24T08:06:52.255Z,3.51
2022-12-24T08:09:18.877Z,2.73
2022-12-24T08:11:51.730Z,2.29
2022-12-24T08:14:19.348Z,2.14
2022-12-24T08:16:46.020Z,2.36
2022-12-24T08:19:12.708Z,2.99
2022-12-24T08:21:39.384Z,3.57
2022-12-24T08:24:06.485Z,3.97
2022-12-24T08:26:33.197Z,4.49
2022-12-24T08:28:59.915Z,5.05
2022-12-24T08:31:26.724Z,5.46
2022-12-24T08:33:53.476Z,5.54
2022-12-24T08:36:20.105Z,5.52
2022-12-24T08:38:46.793Z,5.65
2022-12-24T08:41:13.450Z,5.75
2022-12-24T08:43:40.127Z,5.43
2022-12-24T08:46:06.908Z,6.01
2022-12-24T08:48:34.066Z,6.73
2022-12-24T08:51:00.789Z,6.08
2022-12-24T08:53:27.568Z,5.32
2022-12-24T08:56:01.784Z,6.11
2022-12-24T08:58:29.619Z,6.77
2022-12-24T09:00:56.411Z,6.47
2022-12-24T09:03:27.368Z,5.94
2022-12-24T09:05:54.955Z,6.26
2022-12-24T09:08:21.937Z,6.59
2022-12-24T09:10:48.641Z,6.89
2022-12-24T09:13:15.300Z,6.78
2022-12-24T09:15:41.930Z,6.94
2022-12-24T09:18:08.680Z,7.13
2022-12-24T09:20:35.352Z,7.66
2022-12-24T09:23:01.994Z,8.02
2022-12-24T09:25:28.657Z,7.88
2022-12-24T09:27:55.298Z,8.48
2022-12-24T09:30:22.152Z,8.43
2022-12-24T09:32:51.771Z,9.39
2022-12-24T09:35:18.447Z,9.19
2022-12-24T09:37:45.127Z,9.21
2022-12-24T09:40:24.932Z,8.85
2022-12-24T09:42:54.310Z,9.13
2022-12-24T09:45:34.037Z,8.20
2022-12-24T09:48:25.731Z,8.18
2022-12-24T09:51:06.579Z,8.61
2022-12-24T09:53:53.874Z,8.37
2022-12-24T09:56:30.794Z,8.16
2022-12-24T09:59:03.452Z,7.87
2022-12-24T10:01:32.053Z,7.76
2022-12-24T10:04:02.178Z,8.01
2022-12-24T10:06:51.898Z,7.82
2022-12-24T10:09:24.402Z,8.51
2022-12-24T10:12:25.780Z,8.61
2022-12-24T10:14:58.441Z,9.02
2022-12-24T10:17:28.103Z,9.79
2022-12-24T10:20:07.234Z,9.74
2022-12-24T10:22:57.885Z,9.45
2022-12-24T10:25:54.144Z,9.62
2022-12-24T10:28:42.398Z,9.24
2022-12-24T10:31:09.948Z,9.00
2022-12-24T10:34:01.734Z,8.60
2022-12-24T10:36:30.514Z,8.61
2022-12-24T10:38:58.074Z,8.72
2022-12-24T10:41:27.088Z,8.52
2022-12-24T10:43:55.327Z,8.56
2022-12-24T10:46:28.304Z,8.43
2022-12-24T10:48:56.959Z,8.32
2022-12-24T10:51:33.975Z,8.60
2022-12-24T10:54:13.226Z,8.75
2022-12-24T10:56:46.635Z,8.80
2022-12-24T10:59:53.905Z,9.12
2022-12-24T11:02:33.162Z,8.97
2022-12-24T11:05:02.424Z,9.33
2022-12-24T11:07:30.893Z,8.94
2022-12-24T11:10:03.243Z,9.34
2022-12-24T11:12:36.239Z,9.85
2022-12-24T11:15:24.509Z,10.59
2022-12-24T11:18:03.932Z,10.93
2022-12-24T11:20:33.947Z,11.38
2022-12-24T11:23:03.048Z,12.10
2022-12-24T11:25:32.750Z,12.47
2022-12-24T11:28:20.026Z,12.47
2022-12-24T11:31:00.550Z,12.67
2022-12-24T11:33:28.992Z,13.39
2022-12-24T11:36:01.839Z,13.16
2022-12-24T11:38:29.977Z,12.94
2022-12-24T11:41:11.656Z,12.69
2022-12-24T11:43:45.235Z,11.78
2022-12-24T11:46:20.005Z,11.39
2022-12-24T11:48:47.245Z,12.34
2022-12-24T11:51:32.184Z,12.50
2022-12-24T11:54:16.620Z,12.51
2022-12-24T11:56:50.047Z,12.25
2022-12-24T11:59:19.670Z,12.54
2022-12-24T12:01:52.124Z,12.30
2022-12-24T12:04:22.958Z,12.43
2022-12-24T12:06:55.635Z,12.90
2022-12-24T12:09:31.577Z,12.23
2022-12-24T12:12:22.854Z,11.98
2022-12-24T12:14:54.807Z,11.75
2022-12-24T12:17:31.903Z,11.68
2022-12-24T12:20:07.352Z,11.70
2022-12-24T12:23:02.752Z,11.64
2022-12-24T12:25:44.217Z,11.70
2022-12-24T12:28:33.684Z,11.85
2022-12-24T12:34:21.830Z,11.10
2022-12-24T12:36:59.638Z,11.35
2022-12-24T12:39:26.785Z,11.34
2022-12-24T12:42:14.553Z,11.24
2022-12-24T12:44:53.414Z,11.30
2022-12-24T12:47:47.858Z,11.33
2022-12-24T12:50:18.865Z,11.23
2022-12-24T12:52:51.414Z,11.21
2022-12-24T12:55:47.975Z,11.12
2022-12-24T12:58:25.452Z,11.03
2022-12-24T13:00:59.121Z,11.08
2022-12-24T13:03:50.941Z,11.37
2022-12-24T13:06:51.349Z,11.24
2022-12-24T13:09:24.027Z,11.19
2022-12-24T13:11:53.534Z,11.29
2022-12-24T13:14:26.150Z,11.02
2022-12-24T13:17:01.744Z,10.81
2022-12-24T13:20:01.635Z,10.69
2022-12-24T13:22:28.722Z,10.73
2022-12-24T13:24:56.823Z,10.58
2022-12-24T13:27:31.644Z,10.85
2022-12-24T13:30:18.087Z,10.74
2022-12-24T13:32:51.200Z,11.10
2022-12-24T13:35:20.916Z,11.21
2022-12-24T13:37:49.075Z,10.97
2022-12-24T13:40:26.763Z,10.91
2022-12-24T13:42:59.240Z,10.95
2022-12-24T13:45:28.875Z,10.88
2022-12-24T13:48:01.199Z,10.94
2022-12-24T13:50:56.740Z,11.15
2022-12-24T13:53:34.242Z,11.21
2022-12-24T13:56:08.995Z,11.09
2022-12-24T13:58:40.565Z,11.17
2022-12-24T14:01:22.306Z,11.40
2022-12-24T14:03:53.502Z,11.20
2022-12-24T14:06:27.906Z,10.96
2022-12-24T14:09:20.427Z,10.84
2022-12-24T14:11:59.035Z,10.83
2022-12-24T14:14:30.716Z,10.85
2022-12-24T14:17:19.713Z,10.80
2022-12-24T14:19:55.333Z,10.63
2022-12-24T14:22:30.935Z,10.28
2022-12-24T14:25:17.878Z,10.46
2022-12-24T14:27:51.296Z,10.66
2022-12-24T14:30:23.885Z,10.57
2022-12-24T14:32:52.253Z,10.47
2022-12-24T14:35:21.848Z,10.62
2022-12-24T14:38:01.304Z,10.54
2022-12-24T14:40:30.804Z,10.48
2022-12-24T14:43:03.352Z,10.53
2022-12-24T14:45:39.049Z,10.64
2022-12-24T14:48:14.443Z,10.49
2022-12-24T14:50:55.808Z,10.37
2022-12-24T14:53:37.745Z,10.46
2022-12-24T14:56:19.720Z,10.24
2022-12-24T14:58:47.522Z,10.21
2022-12-24T15:01:31.697Z,10.23
2022-12-24T15:04:11.982Z,10.31
2022-12-24T15:06:40.515Z,10.42
2022-12-24T15:09:25.563Z,10.43
2022-12-24T15:11:54.795Z,10.52
2022-12-24T15:14:24.217Z,10.43
2022-12-24T15:16:58.954Z,10.55
2022-12-24T15:19:31.486Z,10.59
2022-12-24T15:21:58.256Z,10.17
2022-12-24T15:24:36.436Z,10.16
2022-12-24T15:27:15.518Z,10.45
2022-12-24T15:29:45.193Z,10.42
2022-12-24T15:32:17.013Z,10.40
2022-12-24T15:34:49.014Z,10.44
2022-12-24T15:37:18.260Z,10.51
2022-12-24T15:39:52.244Z,10.22
2022-12-24T15:42:22.495Z,10.47
2022-12-24T15:45:19.160Z,10.47
2022-12-24T15:47:59.236Z,10.36
2022-12-24T15:50:33.766Z,10.34
2022-12-24T15:53:29.437Z,10.06
2022-12-24T15:56:12.125Z,9.93
2022-12-24T15:58:42.322Z,9.90
2022-12-24T16:01:09.092Z,9.82
2022-12-24T16:03:38.036Z,9.98
2022-12-24T16:06:11.296Z,10.16
2022-12-24T16:08:43.463Z,10.21
2022-12-24T16:11:25.358Z,10.16
2022-12-24T16:14:07.041Z,10.16
2022-12-24T16:16:49.881Z,10.13
2022-12-24T16:19:35.842Z,10.04
2022-12-24T16:22:24.606Z,9.96
2022-12-24T16:24:52.795Z,9.99
2022-12-24T16:27:19.447Z,10.05
2022-12-24T16:29:47.113Z,9.86
2022-12-24T16:32:38.179Z,9.71
2022-12-24T16:35:08.425Z,9.74
2022-12-24T16:37:35.211Z,9.58
2022-12-24T16:40:01.898Z,9.39
2022-12-24T16:42:47.032Z,9.40
2022-12-24T16:45:13.855Z,9.61
2022-12-24T16:47:43.391Z,9.88
2022-12-24T16:50:16.787Z,9.72
2022-12-24T16:52:43.598Z,9.75
2022-12-24T16:55:14.190Z,9.80
2022-12-24T16:57:42.135Z,9.93
2022-12-24T17:00:15.934Z,9.97
2022-12-24T17:02:42.713Z,10.06
2022-12-24T17:05:09.966Z,9.99
2022-12-24T17:07:42.875Z,9.84
2022-12-24T17:10:14.845Z,9.84
2022-12-24T17:12:42.812Z,9.70
2022-12-24T17:15:10.196Z,9.58
2022-12-24T17:17:37.009Z,9.56
2022-12-24T17:20:04.776Z,9.66
2022-12-24T17:22:31.689Z,9.52
2022-12-24T17:24:58.690Z,9.39
2022-12-24T17:27:25.370Z,9.34
2022-12-24T17:29:52.314Z,9.27
2022-12-24T17:32:19.235Z,9.16
2022-12-24T17:34:46.112Z,9.24
2022-12-24T17:37:12.991Z,9.10
2022-12-24T17:39:39.893Z,9.12
2022-12-24T17:42:06.631Z,9.10
2022-12-24T17:44:33.431Z,9.12
2022-12-24T17:47:01.920Z,8.96
2022-12-24T17:49:29.606Z,8.84
2022-12-24T17:51:56.340Z,8.82
2022-12-24T17:54:23.198Z,8.68
2022-12-24T17:56:49.884Z,8.64
2022-12-24T17:59:16.596Z,8.68
2022-12-24T18:01:56.106Z,8.53
2022-12-24T18:04:22.904Z,8.48
2022-12-24T18:06:49.999Z,8.55
2022-12-24T18:09:17.466Z,8.38
2022-12-24T18:11:44.477Z,8.40
2022-12-24T18:14:14.129Z,8.41
2022-12-24T18:16:42.028Z,8.44
2022-12-24T18:19:11.716Z,8.42
2022-12-24T18:21:39.185Z,8.45
2022-12-24T18:24:06.132Z,8.36
2022-12-24T18:26:33.424Z,8.32
2022-12-24T18:29:04.429Z,8.42
2022-12-24T18:31:33.660Z,8.32
2022-12-24T18:34:02.602Z,8.38
2022-12-24T18:36:29.456Z,8.16
2022-12-24T18:38:56.361Z,8.08
2022-12-24T18:41:29.326Z,8.22
2022-12-24T18:43:57.066Z,8.05
2022-12-24T18:46:29.772Z,8.03
2022-12-24T18:48:59.586Z,8.02
2022-12-24T18:51:30.087Z,8.14
2022-12-24T18:53:56.753Z,8.05
2022-12-24T18:56:25.580Z,8.23
2022-12-24T18:58:54.459Z,8.25
2022-12-24T19:01:34.279Z,8.13
2022-12-24T19:04:02.128Z,8.13
2022-12-24T19:06:28.818Z,8.10
2022-12-24T19:08:57.933Z,7.97
2022-12-24T19:11:26.925Z,8.06
2022-12-24T19:13:53.614Z,8.06
2022-12-24T19:16:21.133Z,8.06
2022-12-24T19:18:48.008Z,7.94
2022-12-24T19:21:15.660Z,8.02
2022-12-24T19:23:42.731Z,8.01
2022-12-24T19:26:13.719Z,8.00
2022-12-24T19:28:40.601Z,8.01
2022-12-24T19:31:13.608Z,8.11
2022-12-24T19:33:43.697Z,8.15
2022-12-24T19:36:14.170Z,8.08
2022-12-24T19:38:41.188Z,7.99
2022-12-24T19:41:10.896Z,8.07
2022-12-24T19:43:39.073Z,8.10
2022-12-24T19:46:06.057Z,8.17
2022-12-24T19:48:32.890Z,8.17
2022-12-24T19:51:04.133Z,8.15
2022-12-24T19:53:30.974Z,8.23
2022-12-24T19:55:58.948Z,8.19
2022-12-24T19:58:26.750Z,8.17
2022-12-24T20:00:53.853Z,8.21
2022-12-24T20:03:20.993Z,8.21
2022-12-24T20:05:47.852Z,8.21
2022-12-24T20:08:14.466Z,8.26
2022-12-24T20:10:43.610Z,8.28
2022-12-24T20:13:10.804Z,8.27
2022-12-24T20:15:42.144Z,8.11
2022-12-24T20:18:09.877Z,8.28
2022-12-24T20:20:37.144Z,8.22
2022-12-24T20:23:04.756Z,8.23
2022-12-24T20:25:34.369Z,8.29
2022-12-24T20:28:01.166Z,8.21
2022-12-24T20:30:27.845Z,8.23
2022-12-24T20:32:56.304Z,8.14
2022-12-24T20:35:24.356Z,8.23
2022-12-24T20:37:51.034Z,8.18
2022-12-24T20:40:17.778Z,8.15
2022-12-24T20:42:44.644Z,8.09
2022-12-24T20:45:11.392Z,8.18
2022-12-24T20:47:38.931Z,8.16
2022-12-24T20:50:06.484Z,8.18
2022-12-24T20:52:33.120Z,8.17
2022-12-24T20:54:59.769Z,8.22
2022-12-24T20:57:31.456Z,8.25
2022-12-24T21:00:02.528Z,8.49
2022-12-24T21:02:29.835Z,8.38
2022-12-24T21:05:01.609Z,8.38
2022-12-24T21:07:29.116Z,8.34
2022-12-24T21:09:55.820Z,8.42
2022-12-24T21:12:41.422Z,8.35
2022-12-24T21:15:08.374Z,8.44
2022-12-24T21:17:35.181Z,8.46
2022-12-24T21:20:01.899Z,8.35
2022-12-24T21:22:28.564Z,8.37
2022-12-24T21:24:55.172Z,8.41
2022-12-24T21:27:21.961Z,8.43
2022-12-24T21:29:48.757Z,8.47
2022-12-24T21:32:15.436Z,8.35
2022-12-24T21:34:42.159Z,8.31
2022-12-24T21:37:08.864Z,8.13
2022-12-24T21:39:35.600Z,8.20
2022-12-24T21:42:02.527Z,8.38
2022-12-24T21:44:31.196Z,8.31
2022-12-24T21:46:57.842Z,8.34
2022-12-24T21:49:42.985Z,8.39
2022-12-24T21:52:09.603Z,8.45
2022-12-24T21:54:36.405Z,8.64
2022-12-24T21:57:25.043Z,8.76
2022-12-24T21:59:57.280Z,8.72
2022-12-24T22:02:29.054Z,8.92
2022-12-24T22:04:55.934Z,8.92
2022-12-24T22:07:44.225Z,9.03
2022-12-24T22:10:30.747Z,8.98
2022-12-24T22:12:59.514Z,9.07
2022-12-24T22:15:27.358Z,9.09
2022-12-24T22:17:54.006Z,9.11
2022-12-24T22:20:20.809Z,9.13
2022-12-24T22:22:48.943Z,9.26
2022-12-24T22:25:16.416Z,9.21
2022-12-24T22:27:43.140Z,9.10
2022-12-24T22:30:10.334Z,9.05
2022-12-24T22:32:37.067Z,9.16
2022-12-24T22:35:03.899Z,8.97
2022-12-24T22:37:30.548Z,9.00
2022-12-24T22:39:57.206Z,8.95
2022-12-24T22:42:23.897Z,8.91
2022-12-24T22:44:50.507Z,8.77
2022-12-24T22:47:17.181Z,8.84
2022-12-24T22:49:43.860Z,8.80
2022-12-24T22:52:10.532Z,8.80
2022-12-24T22:54:37.244Z,8.70
2022-12-24T22:57:03.914Z,8.75
2022-12-24T22:59:30.567Z,8.62
2022-12-24T23:01:58.202Z,8.38
2022-12-24T23:04:25.774Z,7.99
2022-12-24T23:06:52.410Z,7.61
2022-12-24T23:09:19.106Z,8.02
2022-12-24T23:11:45.854Z,8.14
2022-12-24T23:14:36.426Z,8.28
2022-12-24T23:17:03.433Z,8.29
2022-12-24T23:19:32.014Z,8.47
2022-12-24T23:21:58.612Z,8.64
2022-12-24T23:24:25.483Z,8.65
2022-12-24T23:26:52.168Z,8.76
2022-12-24T23:29:18.921Z,8.75
2022-12-24T23:31:45.530Z,8.94
2022-12-24T23:34:12.265Z,8.92
2022-12-24T23:36:39.133Z,8.95
2022-12-24T23:39:05.809Z,8.91
2022-12-24T23:41:32.458Z,9.04
2022-12-24T23:43:59.111Z,9.13
2022-12-24T23:46:25.822Z,9.10
2022-12-24T23:48:56.628Z,9.38
2022-12-24T23:51:25.856Z,9.42
2022-12-24T23:53:54.915Z,9.58
2022-12-24T23:56:24.158Z,9.66
2022-12-24T23:58:51.008Z,9.80
